createdAt,value
2022-09-13T00:00:40.617Z,11.4
2022-09-13T00:04:40.487Z,10.23
2022-09-13T00:08:40.814Z,10.52
2022-09-13T00:12:40.812Z,10.88
2022-09-13T00:16:41.160Z,10.6
2022-09-13T00:20:40.456Z,10.2
2022-09-13T00:24:39.948Z,11.48
2022-09-13T00:28:40.567Z,11.43
2022-09-13T00:32:40.045Z,11.5
2022-09-13T00:36:40.477Z,11.35
2022-09-13T00:40:40.618Z,9.82
2022-09-13T00:44:40.495Z,11.1
2022-09-13T00:48:40.436Z,10.3
2022-09-13T00:52:44.887Z,12.77
2022-09-13T00:56:40.435Z,11.77
2022-09-13T01:00:40.501Z,13.07
2022-09-13T01:04:40.438Z,11.77
2022-09-13T01:08:40.498Z,12.2
2022-09-13T01:12:40.359Z,12.93
2022-09-13T01:16:39.755Z,11.68
2022-09-13T01:20:40.834Z,11.48
2022-09-13T01:24:40.279Z,12.1
2022-09-13T01:28:40.630Z,11.2
2022-09-13T01:32:40.446Z,11.6
2022-09-13T01:36:40.690Z,12.98
2022-09-13T01:40:40.454Z,12.13
2022-09-13T01:44:40.533Z,13.32
2022-09-13T01:48:40.403Z,11.98
2022-09-13T01:52:40.868Z,10.57
2022-09-13T01:56:40.554Z,11.55
2022-09-13T02:00:40.314Z,12.57
2022-09-13T02:04:40.141Z,12.85
2022-09-13T02:08:40.232Z,11.43
2022-09-13T02:12:40.498Z,11.23
2022-09-13T02:16:40.829Z,11.7
2022-09-13T02:20:39.678Z,11.55
2022-09-13T02:24:40.673Z,12.18
2022-09-13T02:28:40.448Z,11.35
2022-09-13T02:32:40.584Z,12.82
2022-09-13T02:36:40.473Z,11.98
2022-09-13T02:40:40.900Z,10.57
2022-09-13T02:44:40.413Z,11
2022-09-13T02:48:40.971Z,11.52
2022-09-13T02:52:40.423Z,12
2022-09-13T02:56:39.876Z,11.18
2022-09-13T03:00:40.616Z,11.2
2022-09-13T03:04:40.566Z,11.85
2022-09-13T03:08:40.437Z,11.02
2022-09-13T03:12:40.454Z,12.3
2022-09-13T03:16:40.823Z,10.38
2022-09-13T03:20:40.329Z,12.8
2022-09-13T03:24:39.980Z,12.7
2022-09-13T03:28:40.855Z,10.73
2022-09-13T03:32:40.628Z,10.3
2022-09-13T03:36:40.492Z,10.93
2022-09-13T03:40:40.483Z,11.63
2022-09-13T03:44:40.365Z,11.12
2022-09-13T03:48:40.580Z,11.27
2022-09-13T03:52:45.807Z,11.4
2022-09-13T03:56:39.543Z,10.2
2022-09-13T04:00:40.575Z,10.18
2022-09-13T04:04:40.462Z,11.35
2022-09-13T04:08:41.234Z,10.27
2022-09-13T04:12:41.186Z,11.23
2022-09-13T04:16:40.722Z,11.73
2022-09-13T04:20:40.408Z,10.45
2022-09-13T04:24:40.031Z,11
2022-09-13T04:28:40.458Z,11
2022-09-13T04:32:39.273Z,10.85
2022-09-13T04:36:40.988Z,11.5
2022-09-13T04:40:40.565Z,11.12
2022-09-13T04:44:40.565Z,11.55
2022-09-13T04:48:40.486Z,11.1
2022-09-13T04:52:41.267Z,11.07
2022-09-13T04:56:40.887Z,10.38
2022-09-13T05:00:40.599Z,11.48
2022-09-13T05:04:40.450Z,10.38
2022-09-13T05:08:40.417Z,10.27
2022-09-13T05:12:40.912Z,9.6
2022-09-13T05:16:40.229Z,9.25
2022-09-13T05:20:40.408Z,10.65
2022-09-13T05:24:40.447Z,8.6
2022-09-13T05:28:40.449Z,8.32
2022-09-13T05:32:40.575Z,8.85
2022-09-13T05:36:40.470Z,7.53
2022-09-13T05:40:40.438Z,7.1
2022-09-13T05:44:41.196Z,7.2
2022-09-13T05:48:40.559Z,7.03
2022-09-13T05:52:40.568Z,7.95
2022-09-13T05:56:40.407Z,6.97
2022-09-13T06:00:40.536Z,6.85
2022-09-13T06:04:40.297Z,6.05
2022-09-13T06:08:40.548Z,7.6
2022-09-13T06:12:41.207Z,6.37
2022-09-13T06:16:40.738Z,5.1
2022-09-13T06:20:40.411Z,4.4
2022-09-13T06:24:40.503Z,3.58
2022-09-13T06:28:40.604Z,3.3
2022-09-13T06:32:39.381Z,3.62
2022-09-13T06:36:40.575Z,3.1
2022-09-13T06:40:40.599Z,3.35
2022-09-13T06:44:40.449Z,3.75
2022-09-13T06:48:40.466Z,3.72
2022-09-13T06:52:41.082Z,3.95
2022-09-13T06:56:40.327Z,4.47
2022-09-13T07:00:40.826Z,4.07
2022-09-13T07:04:40.574Z,3.47
2022-09-13T07:08:40.493Z,3.9
2022-09-13T07:12:40.522Z,5.07
2022-09-13T07:16:40.482Z,3.78
2022-09-13T07:20:40.546Z,4.32
2022-09-13T07:24:41.184Z,4.8
2022-09-13T07:28:41.053Z,5.57
2022-09-13T07:32:40.447Z,6.12
2022-09-13T07:36:40.827Z,5.65
2022-09-13T07:40:40.489Z,6.7
2022-09-13T07:44:40.579Z,5.62
2022-09-13T07:48:40.576Z,6.1
2022-09-13T07:52:40.693Z,6.12
2022-09-13T07:56:40.957Z,6.93
2022-09-13T08:00:40.529Z,7.25
2022-09-13T08:04:40.340Z,7.25
2022-09-13T08:08:40.905Z,8.15
2022-09-13T08:12:39.315Z,7.5
2022-09-13T08:16:41.225Z,8.3
2022-09-13T08:20:40.475Z,7.72
2022-09-13T08:24:40.526Z,7.87
2022-09-13T08:28:40.482Z,6.9
2022-09-13T08:32:40.430Z,6.6
2022-09-13T08:36:40.567Z,6.5
2022-09-13T08:40:40.611Z,6.95
2022-09-13T08:44:40.533Z,7.05
2022-09-13T08:48:41.113Z,6.43
2022-09-13T08:52:40.582Z,6.07
2022-09-13T08:56:40.884Z,5.7
2022-09-13T09:00:40.584Z,6.68
2022-09-13T09:04:40.422Z,6.65
2022-09-13T09:08:40.458Z,6.18
2022-09-13T09:12:40.462Z,6.07
2022-09-13T09:16:40.446Z,6.25
2022-09-13T09:20:40.504Z,6.6
2022-09-13T09:24:40.450Z,5.93
2022-09-13T09:28:40.456Z,6.4
2022-09-13T09:32:40.457Z,5.6
2022-09-13T09:36:40.961Z,5.53
2022-09-13T09:40:40.692Z,5.47
2022-09-13T09:44:40.479Z,5.25
2022-09-13T09:48:40.508Z,5.32
2022-09-13T09:52:40.681Z,5.55
2022-09-13T09:56:40.485Z,6.25
2022-09-13T10:00:40.589Z,5.37
2022-09-13T10:04:40.472Z,4.85
2022-09-13T10:08:40.549Z,5.03
2022-09-13T10:12:40.496Z,4.68
2022-09-13T10:16:40.341Z,5.7
2022-09-13T10:20:41.014Z,6.35
2022-09-13T10:24:39.409Z,5.68
2022-09-13T10:28:40.819Z,5.07
2022-09-13T10:32:40.689Z,5.6
2022-09-13T10:36:52.301Z,4.93
2022-09-13T10:40:40.730Z,5.07
2022-09-13T10:44:40.495Z,5.32
2022-09-13T10:48:40.533Z,4.3
2022-09-13T10:52:41.128Z,4.32
2022-09-13T10:56:40.498Z,4.15
2022-09-13T11:00:40.793Z,4.4
2022-09-13T11:04:40.641Z,4.28
2022-09-13T11:08:40.786Z,4.55
2022-09-13T11:12:40.531Z,4.07
2022-09-13T11:16:40.582Z,3.65
2022-09-13T11:20:40.599Z,4.18
2022-09-13T11:24:40.569Z,3.85
2022-09-13T11:28:40.512Z,3.72
2022-09-13T11:32:40.820Z,4.1
2022-09-13T11:36:41.098Z,3.62
2022-09-13T11:40:40.509Z,3.7
2022-09-13T11:44:40.463Z,3.78
2022-09-13T11:48:40.557Z,4.25
2022-09-13T11:52:39.277Z,3.45
2022-09-13T11:56:40.914Z,3.5
2022-09-13T12:00:40.642Z,3.5
2022-09-13T12:04:41.145Z,3.62
2022-09-13T12:08:40.422Z,3.45
2022-09-13T12:12:40.058Z,3.35
2022-09-13T12:16:41.294Z,3.7
2022-09-13T12:20:40.906Z,3.92
2022-09-13T12:24:40.489Z,4.05
2022-09-13T12:28:40.756Z,3.5
2022-09-13T12:32:40.260Z,3.97
2022-09-13T12:36:40.662Z,3.67
2022-09-13T12:40:40.644Z,3.3
2022-09-13T12:44:40.460Z,3.7
2022-09-13T12:48:40.479Z,4
2022-09-13T12:52:40.513Z,3.87
2022-09-13T12:56:40.660Z,3.53
2022-09-13T13:00:40.529Z,3.58
2022-09-13T13:04:40.485Z,3.35
2022-09-13T13:08:40.493Z,2.97
2022-09-13T13:12:39.489Z,3.25
2022-09-13T13:16:40.749Z,3.92
2022-09-13T13:20:40.553Z,4.07
2022-09-13T13:24:39.380Z,4.68
2022-09-13T13:28:40.598Z,3.62
2022-09-13T13:32:39.743Z,3.45
2022-09-13T13:36:40.234Z,3.2
2022-09-13T13:40:40.853Z,4.03
2022-09-13T13:44:40.564Z,4.97
2022-09-13T13:48:40.666Z,4.12
2022-09-13T13:52:40.471Z,4.57
2022-09-13T13:56:40.515Z,4.55
2022-09-13T14:00:40.861Z,3.28
2022-09-13T14:04:40.438Z,3.95
2022-09-13T14:08:40.542Z,4.15
2022-09-13T14:12:40.632Z,4.1
2022-09-13T14:16:41.177Z,3.65
2022-09-13T14:20:40.766Z,3.5
2022-09-13T14:24:40.647Z,3.58
2022-09-13T14:28:40.462Z,4
2022-09-13T14:32:41.886Z,4.18
2022-09-13T14:36:40.518Z,3.6
2022-09-13T14:40:40.670Z,4.37
2022-09-13T14:44:40.472Z,4.43
2022-09-13T14:48:40.809Z,3.53
2022-09-13T14:52:40.802Z,3.92
2022-09-13T14:56:40.446Z,4.07
2022-09-13T15:00:40.701Z,3.72
2022-09-13T15:04:43.032Z,3.72
2022-09-13T15:08:40.463Z,3.25
2022-09-13T15:12:40.597Z,4.07
2022-09-13T15:16:40.334Z,4.2
2022-09-13T15:20:40.814Z,3.72
2022-09-13T15:24:40.602Z,4.03
2022-09-13T15:28:40.529Z,4.03
2022-09-13T15:32:40.601Z,3.67
2022-09-13T15:36:40.467Z,3.83
2022-09-13T15:40:40.612Z,3.45
2022-09-13T15:44:42.639Z,3.87
2022-09-13T15:48:40.992Z,3.87
2022-09-13T15:52:40.403Z,3.8
2022-09-13T15:56:40.348Z,4.32
2022-09-13T16:00:40.577Z,4.32
2022-09-13T16:04:40.464Z,4.85
2022-09-13T16:08:40.493Z,4.87
2022-09-13T16:12:40.434Z,5.53
2022-09-13T16:16:41.057Z,5.6
2022-09-13T16:20:40.621Z,6.4
2022-09-13T16:24:40.717Z,5
2022-09-13T16:28:40.562Z,5.72
2022-09-13T16:32:40.529Z,5.8
2022-09-13T16:36:41.180Z,5.32
2022-09-13T16:40:41.037Z,5.53
2022-09-13T16:44:40.463Z,5.72
2022-09-13T16:48:40.996Z,6.07
2022-09-13T16:52:40.437Z,5.72
2022-09-13T16:56:41.184Z,5.6
2022-09-13T17:00:40.435Z,6.05
2022-09-13T17:04:40.647Z,6.85
2022-09-13T17:08:40.455Z,6.43
2022-09-13T17:12:39.921Z,6.75
2022-09-13T17:16:40.675Z,6.28
2022-09-13T17:20:40.705Z,6.95
2022-09-13T17:24:40.642Z,6.65
2022-09-13T17:28:40.508Z,6.32
2022-09-13T17:32:40.632Z,5.85
2022-09-13T17:36:40.863Z,6.22
2022-09-13T17:40:40.478Z,7.25
2022-09-13T17:44:40.830Z,5.93
2022-09-13T17:48:40.255Z,6.2
2022-09-13T17:52:40.416Z,6.55
2022-09-13T17:56:41.097Z,7.25
2022-09-13T18:00:40.554Z,7.12
2022-09-13T18:04:40.602Z,6.97
2022-09-13T18:08:40.953Z,7.35
2022-09-13T18:12:40.634Z,6.2
2022-09-13T18:16:40.377Z,7.15
2022-09-13T18:20:41.034Z,7.1
2022-09-13T18:24:40.805Z,7.05
2022-09-13T18:28:40.389Z,7.45
2022-09-13T18:32:39.250Z,8.25
2022-09-13T18:36:40.516Z,8.25
2022-09-13T18:40:40.598Z,8.57
2022-09-13T18:44:40.543Z,7.57
2022-09-13T18:48:41.172Z,7.28
2022-09-13T18:52:40.939Z,8.82
2022-09-13T18:56:40.550Z,8.18
2022-09-13T19:00:40.636Z,8.07
2022-09-13T19:04:40.495Z,8.75
2022-09-13T19:08:40.382Z,8.82
2022-09-13T19:12:40.440Z,8.25
2022-09-13T19:16:40.303Z,8.95
2022-09-13T19:20:40.515Z,11.02
2022-09-13T19:24:40.354Z,9.8
2022-09-13T19:28:40.412Z,10.15
2022-09-13T19:32:40.363Z,9.82
2022-09-13T19:36:40.367Z,10.1
2022-09-13T19:40:40.543Z,11.02
2022-09-13T19:44:40.476Z,11.07
2022-09-13T19:48:40.626Z,10.77
2022-09-13T19:52:39.890Z,9.8
2022-09-13T19:56:40.978Z,10.7
2022-09-13T20:00:40.429Z,10.77
2022-09-13T20:04:40.546Z,11.27
2022-09-13T20:08:40.505Z,11.82
2022-09-13T20:12:40.437Z,11.6
2022-09-13T20:16:40.263Z,11.9
2022-09-13T20:20:40.506Z,13.52
2022-09-13T20:24:40.521Z,12.18
2022-09-13T20:28:40.449Z,13.27
2022-09-13T20:32:41.015Z,14.93
2022-09-13T20:36:40.500Z,13.45
2022-09-13T20:40:40.658Z,13.18
2022-09-13T20:44:40.389Z,14.9
2022-09-13T20:48:40.548Z,12.35
2022-09-13T20:52:40.495Z,13.52
2022-09-13T20:56:40.105Z,13.48
2022-09-13T21:00:40.502Z,14.48
2022-09-13T21:04:40.521Z,14
2022-09-13T21:08:40.481Z,14.1
2022-09-13T21:12:40.461Z,13.68
2022-09-13T21:16:40.531Z,13.77
2022-09-13T21:20:40.451Z,12.35
2022-09-13T21:24:40.417Z,13.5
2022-09-13T21:28:41.210Z,12.3
2022-09-13T21:32:40.746Z,12.8
2022-09-13T21:36:40.606Z,14.23
2022-09-13T21:40:40.738Z,12.45
2022-09-13T21:44:40.436Z,12.82
2022-09-13T21:48:40.431Z,12.82
2022-09-13T21:52:40.808Z,11.9
2022-09-13T21:56:41.042Z,12.02
2022-09-13T22:00:40.097Z,12.8
2022-09-13T22:04:40.914Z,12.4
2022-09-13T22:08:40.614Z,12.05
2022-09-13T22:12:40.526Z,13.55
2022-09-13T22:16:41.010Z,13.02
2022-09-13T22:20:40.382Z,14.07
2022-09-13T22:24:40.411Z,13.73
2022-09-13T22:28:40.332Z,14.9
2022-09-13T22:32:40.868Z,12.85
2022-09-13T22:36:40.487Z,14.23
2022-09-13T22:40:40.574Z,14.32
2022-09-13T22:44:40.907Z,13.25
2022-09-13T22:48:40.822Z,14.25
2022-09-13T22:52:40.906Z,14.82
2022-09-13T22:56:40.922Z,17.05
2022-09-13T23:00:40.568Z,16.73
2022-09-13T23:04:40.437Z,18.52
2022-09-13T23:08:40.552Z,18.52
2022-09-13T23:12:40.486Z,21.65
2022-09-13T23:16:40.648Z,20.3
2022-09-13T23:20:40.866Z,21.62
2022-09-13T23:24:41.073Z,20.25
2022-09-13T23:28:40.498Z,19.75
2022-09-13T23:32:40.581Z,20.45
2022-09-13T23:36:41.189Z,18.85
2022-09-13T23:40:40.547Z,20.95
2022-09-13T23:44:40.303Z,20.23
2022-09-13T23:48:40.439Z,21.37
2022-09-13T23:52:40.558Z,23.35
2022-09-13T23:56:41.114Z,21.8
